createdAt,value
2023-03-22T00:00:21.864Z,20.69
2023-03-22T00:03:24.894Z,20.66
2023-03-22T00:06:27.777Z,20.68
2023-03-22T00:09:31.897Z,20.63
2023-03-22T00:12:34.624Z,20.66
2023-03-22T00:15:39.614Z,20.61
2023-03-22T00:18:42.386Z,20.61
2023-03-22T00:21:45.175Z,20.57
2023-03-22T00:24:47.956Z,20.52
2023-03-22T00:27:50.739Z,20.48
2023-03-22T00:30:56.272Z,20.47
2023-03-22T00:33:59.091Z,20.43
2023-03-22T00:37:01.846Z,20.40
2023-03-22T00:40:04.779Z,20.41
2023-03-22T00:43:07.546Z,20.38
2023-03-22T00:46:12.254Z,20.36
2023-03-22T00:49:15.034Z,20.36
2023-03-22T00:52:17.857Z,20.33
2023-03-22T00:55:20.613Z,20.30
2023-03-22T00:58:23.434Z,20.25
2023-03-22T01:01:27.701Z,20.23
2023-03-22T01:04:31.509Z,20.22
2023-03-22T01:07:34.681Z,20.14
2023-03-22T01:10:37.708Z,20.12
2023-03-22T01:13:41.916Z,20.13
2023-03-22T01:16:46.277Z,20.12
2023-03-22T01:19:49.052Z,20.13
2023-03-22T01:22:51.871Z,20.10
2023-03-22T01:25:54.636Z,20.10
2023-03-22T01:28:58.465Z,20.08
2023-03-22T01:32:02.616Z,20.06
2023-03-22T01:35:05.684Z,20.06
2023-03-22T01:38:08.757Z,20.07
2023-03-22T01:41:11.568Z,20.04
2023-03-22T01:44:15.512Z,20.03
2023-03-22T01:47:19.636Z,20.03
2023-03-22T01:50:23.334Z,20.01
2023-03-22T01:53:27.382Z,19.97
2023-03-22T01:56:32.548Z,19.99
2023-03-22T01:59:35.514Z,19.96
2023-03-22T02:02:39.896Z,19.95
2023-03-22T02:05:42.927Z,19.94
2023-03-22T02:08:45.857Z,19.93
2023-03-22T02:11:51.820Z,19.88
2023-03-22T02:15:00.301Z,19.87
2023-03-22T02:18:16.657Z,19.86
2023-03-22T02:21:46.248Z,19.82
2023-03-22T02:24:56.695Z,19.83
2023-03-22T02:28:09.717Z,19.80
2023-03-22T02:31:22.368Z,19.81
2023-03-22T02:34:39.049Z,19.81
2023-03-22T02:38:09.016Z,19.81
2023-03-22T02:41:17.181Z,19.79
2023-03-22T02:44:25.638Z,19.79
2023-03-22T02:47:34.365Z,19.79
2023-03-22T02:50:39.796Z,19.76
2023-03-22T02:53:44.877Z,19.76
2023-03-22T02:56:51.205Z,19.73
2023-03-22T02:59:54.302Z,19.75
2023-03-22T03:03:00.154Z,19.74
2023-03-22T03:06:08.501Z,19.75
2023-03-22T03:09:13.867Z,19.73
2023-03-22T03:12:25.954Z,19.71
2023-03-22T03:15:28.800Z,19.70
2023-03-22T03:18:36.820Z,19.70
2023-03-22T03:21:46.526Z,19.69
2023-03-22T03:24:53.733Z,19.69
2023-03-22T03:28:03.752Z,19.66
2023-03-22T03:31:15.003Z,19.63
2023-03-22T03:34:20.510Z,19.62
2023-03-22T03:37:27.051Z,19.60
2023-03-22T03:40:32.191Z,19.58
2023-03-22T03:43:37.258Z,19.58
2023-03-22T03:46:40.943Z,19.61
2023-03-22T03:49:43.729Z,19.60
2023-03-22T03:52:46.521Z,19.59
2023-03-22T03:55:49.527Z,19.56
2023-03-22T03:58:53.677Z,19.58
2023-03-22T04:01:56.666Z,19.59
2023-03-22T04:04:59.657Z,19.65
2023-03-22T04:08:02.387Z,19.80
2023-03-22T04:11:05.179Z,19.91
2023-03-22T04:14:09.361Z,19.97
2023-03-22T04:17:12.096Z,20.03
2023-03-22T04:20:15.297Z,20.13
2023-03-22T04:23:18.072Z,20.23
2023-03-22T04:26:20.868Z,20.24
2023-03-22T04:29:25.040Z,20.32
2023-03-22T04:32:27.884Z,20.37
2023-03-22T04:35:30.661Z,20.40
2023-03-22T04:38:33.444Z,20.42
2023-03-22T04:41:37.190Z,20.47
2023-03-22T04:44:41.273Z,20.50
2023-03-22T04:47:44.123Z,20.52
2023-03-22T04:50:46.956Z,20.54
2023-03-22T04:53:49.746Z,20.56
2023-03-22T04:56:52.525Z,20.60
2023-03-22T04:59:56.702Z,20.62
2023-03-22T05:02:59.564Z,20.69
2023-03-22T05:06:04.058Z,20.67
2023-03-22T05:09:07.259Z,20.70
2023-03-22T05:12:10.045Z,20.66
2023-03-22T05:15:14.323Z,20.67
2023-03-22T05:18:17.271Z,20.65
2023-03-22T05:21:22.140Z,20.64
2023-03-22T05:24:24.954Z,20.60
2023-03-22T05:27:31.954Z,20.59
2023-03-22T05:30:36.266Z,20.58
2023-03-22T05:33:39.312Z,20.54
2023-03-22T05:36:42.066Z,20.55
2023-03-22T05:39:44.855Z,20.49
2023-03-22T05:42:47.661Z,20.46
2023-03-22T05:45:51.835Z,20.45
2023-03-22T05:48:54.620Z,20.44
2023-03-22T05:51:57.659Z,20.43
2023-03-22T05:55:00.695Z,20.40
2023-03-22T05:58:05.315Z,20.41
2023-03-22T06:01:11.241Z,20.40
2023-03-22T06:04:14.030Z,20.36
2023-03-22T06:07:17.823Z,20.34
2023-03-22T06:10:20.618Z,20.33
2023-03-22T06:13:23.419Z,20.31
2023-03-22T06:16:27.729Z,20.29
2023-03-22T06:19:31.372Z,20.31
2023-03-22T06:22:34.213Z,20.29
2023-03-22T06:25:36.996Z,20.25
2023-03-22T06:28:39.820Z,20.26
2023-03-22T06:31:43.951Z,20.27
2023-03-22T06:34:46.884Z,20.24
2023-03-22T06:37:49.670Z,20.31
2023-03-22T06:40:52.447Z,20.30
2023-03-22T06:43:55.246Z,20.28
2023-03-22T06:46:59.419Z,20.24
2023-03-22T06:50:02.274Z,20.25
2023-03-22T06:53:05.122Z,20.24
2023-03-22T06:56:08.197Z,20.21
2023-03-22T06:59:11.057Z,20.21
2023-03-22T07:02:15.562Z,20.21
2023-03-22T07:05:18.439Z,20.21
2023-03-22T07:08:21.233Z,20.22
2023-03-22T07:11:25.949Z,20.21
2023-03-22T07:14:30.382Z,20.20
2023-03-22T07:17:34.542Z,20.19
2023-03-22T07:20:40.801Z,20.18
2023-03-22T07:23:43.683Z,20.20
2023-03-22T07:26:46.617Z,20.19
2023-03-22T07:29:49.449Z,20.16
2023-03-22T07:32:53.685Z,20.19
2023-03-22T07:35:56.539Z,20.17
2023-03-22T07:38:59.347Z,20.18
2023-03-22T07:42:02.131Z,20.16
2023-03-22T07:45:05.342Z,20.17
2023-03-22T07:48:11.340Z,20.20
2023-03-22T07:51:14.152Z,20.18
2023-03-22T07:54:32.213Z,20.18
2023-03-22T07:57:36.523Z,20.20
2023-03-22T08:00:39.462Z,20.19
2023-03-22T08:03:43.645Z,20.16
2023-03-22T08:06:46.591Z,20.14
2023-03-22T08:09:49.660Z,20.17
2023-03-22T08:12:52.420Z,20.14
2023-03-22T08:15:55.314Z,20.19
2023-03-22T08:19:00.540Z,20.17
2023-03-22T08:22:09.187Z,20.16
2023-03-22T08:25:12.271Z,20.17
2023-03-22T08:28:15.988Z,20.19
2023-03-22T08:31:20.229Z,20.18
2023-03-22T08:34:24.449Z,20.18
2023-03-22T08:37:27.218Z,20.18
2023-03-22T08:40:30.118Z,20.18
2023-03-22T08:43:32.971Z,20.17
2023-03-22T08:46:35.919Z,20.20
2023-03-22T08:49:40.051Z,20.22
2023-03-22T08:52:42.765Z,20.18
2023-03-22T08:55:45.557Z,20.20
2023-03-22T08:58:48.329Z,20.20
2023-03-22T09:01:51.230Z,20.22
2023-03-22T09:04:55.529Z,20.23
2023-03-22T09:08:04.966Z,20.23
2023-03-22T09:11:09.481Z,20.25
2023-03-22T09:14:12.238Z,20.25
2023-03-22T09:17:15.016Z,20.29
2023-03-22T09:20:19.467Z,20.23
2023-03-22T09:23:22.228Z,20.31
2023-03-22T09:26:25.739Z,20.27
2023-03-22T09:29:28.486Z,20.27
2023-03-22T09:32:31.306Z,20.31
2023-03-22T09:35:35.443Z,20.30
2023-03-22T09:38:38.850Z,20.27
2023-03-22T09:41:45.845Z,20.29
2023-03-22T09:44:50.225Z,20.39
2023-03-22T09:47:54.933Z,20.45
2023-03-22T09:51:01.344Z,20.55
2023-03-22T09:54:04.224Z,20.66
2023-03-22T09:57:09.693Z,20.77
2023-03-22T10:00:16.936Z,20.91
2023-03-22T10:03:26.231Z,21.04
2023-03-22T10:06:31.476Z,21.07
2023-03-22T10:09:36.438Z,21.12
2023-03-22T10:12:44.181Z,21.20
2023-03-22T10:15:48.142Z,21.22
2023-03-22T10:18:52.741Z,21.30
2023-03-22T10:21:57.619Z,21.36
2023-03-22T10:25:01.340Z,21.39
2023-03-22T10:28:11.423Z,21.44
2023-03-22T10:31:15.185Z,21.51
2023-03-22T10:34:21.239Z,21.49
2023-03-22T10:37:26.620Z,21.49
2023-03-22T10:40:31.952Z,21.48
2023-03-22T10:43:36.366Z,21.52
2023-03-22T10:46:40.472Z,21.50
2023-03-22T10:49:45.306Z,21.49
2023-03-22T10:52:52.009Z,21.44
2023-03-22T10:55:54.987Z,21.38
2023-03-22T10:58:58.319Z,21.38
2023-03-22T11:02:02.046Z,21.36
2023-03-22T11:05:06.077Z,21.35
2023-03-22T11:08:15.326Z,21.34
2023-03-22T11:11:20.435Z,21.33
2023-03-22T11:14:28.525Z,21.31
2023-03-22T11:17:31.780Z,21.40
2023-03-22T11:20:35.392Z,21.17
2023-03-22T11:23:42.270Z,20.66
2023-03-22T11:27:02.611Z,20.91
2023-03-22T11:30:20.097Z,21.15
2023-03-22T11:33:25.946Z,21.35
2023-03-22T11:36:29.209Z,21.37
2023-03-22T11:39:33.501Z,21.36
2023-03-22T11:42:36.813Z,21.46
2023-03-22T11:45:42.658Z,21.36
2023-03-22T11:48:47.169Z,21.29
2023-03-22T11:51:50.052Z,21.28
2023-03-22T11:54:55.328Z,21.30
2023-03-22T11:57:58.221Z,21.27
2023-03-22T12:01:03.145Z,21.27
2023-03-22T12:04:07.226Z,21.28
2023-03-22T12:07:14.488Z,21.26
2023-03-22T12:10:22.409Z,21.27
2023-03-22T12:13:28.837Z,21.27
2023-03-22T12:16:34.812Z,21.26
2023-03-22T12:19:43.171Z,21.25
2023-03-22T12:22:51.261Z,21.27
2023-03-22T12:25:58.769Z,21.26
2023-03-22T12:29:02.734Z,21.27
2023-03-22T12:32:08.519Z,21.27
2023-03-22T12:35:17.709Z,21.26
2023-03-22T12:38:24.710Z,21.28
2023-03-22T12:41:32.580Z,21.24
2023-03-22T12:44:39.321Z,21.26
2023-03-22T12:47:43.300Z,21.23
2023-03-22T12:50:49.337Z,21.22
2023-03-22T12:53:53.833Z,21.27
2023-03-22T12:56:58.400Z,21.31
2023-03-22T13:00:10.183Z,21.29
2023-03-22T13:03:21.479Z,21.28
2023-03-22T13:06:35.080Z,21.25
2023-03-22T13:09:42.575Z,21.26
2023-03-22T13:13:06.656Z,21.27
2023-03-22T13:16:17.387Z,21.27
2023-03-22T13:19:41.492Z,21.27
2023-03-22T13:23:00.997Z,21.26
2023-03-22T13:26:06.214Z,21.27
2023-03-22T13:29:11.830Z,21.27
2023-03-22T13:32:30.037Z,21.26
2023-03-22T13:35:41.604Z,21.34
2023-03-22T13:38:44.740Z,21.29
2023-03-22T13:41:48.810Z,21.73
2023-03-22T13:44:58.730Z,21.66
2023-03-22T13:48:05.255Z,21.58
2023-03-22T13:51:11.571Z,21.80
2023-03-22T13:54:19.767Z,21.70
2023-03-22T13:57:37.699Z,21.62
2023-03-22T14:00:56.666Z,21.69
2023-03-22T14:04:02.113Z,21.68
2023-03-22T14:07:08.232Z,21.68
2023-03-22T14:10:15.176Z,21.68
2023-03-22T14:13:20.433Z,21.81
2023-03-22T14:16:30.913Z,21.76
2023-03-22T14:19:35.652Z,21.76
